ROMMA est une association bénévole à but non lucratif. Votre soutien est indispensable : ADHERER à ROMMA ou FAIRE un DON

Crempigny - (74, Haute-Savoie)

Albanais-Montagne des Princes (500 m)   Longitude: 05° 54' 5" E   Latitude: 45° 57' 0" N Station partenaire n°10
 

Détail journalier du     <<     >>

Température Precipitation Humidité Pression Vent Dir Rafale Dir. rafale Ensol. 20 cm au dessus du sol
Heure (°C) (mm) (%) (hPa) (km/h) (km/h) (min) (°C)
01:00 1.8088101710NO18NO01.1
02:00 2.1088101711NO21ONO02.2
03:00 2.408710178NO18ONO02.2
04:00 2.408810178NO15NNO02.2
05:00 2.408810168NO15NNO01.7
06:00 2.108910169NO19NO01.7
07:00 2.208810167NO15NNO01.7
08:00 2.108810177NNO19NO01.7
09:00 3.208910186NNO18NNO03.3
10:00 4.408610187N29N208.9
11:00 5.4082101811NNE32N507.8
12:00 5.6082101812NNE27NNE108.9
13:00 7.4075101712NE31NNE507.2
14:00 7.7074101711NE26NE508.9
15:00 7.5075101712NNE27N608.3
16:00 6.707610179NNE23NNE456.1
17:00 5.808110179NNE23NNE55.6
18:00 5.408110187N19NNE05.0
19:00 5.108210187NNE21NNO05.0
20:00 4.808210187N19N04.4
21:00 4.708210188N18NNO04.4
22:00 4.508210186N16NE03.9
23:00 4.308210184N13N03.9
minuit 4.308210184N13NNE03.9

Graphique du 19-11-2019

 

Serveur OMMA